Time;durP1;ratioP1;P1;durP2;ratioP2;P2;SDS_P1;SDS_P2;PMS_P1;PMS_P2;Temp;Humidity;BMP_temperature;BMP_pressure;BME280_temperature;BME280_humidity;BME280_pressure;Samples;Min_cycle;Max_cycle;Signal;HPM_P1;HPM_P2
2022/07/03 00:00:12;;;;;;;1.45;1.02;;;22.00;95.90;;;;;;4125865;28;20120;-71
2022/07/03 00:02:13;;;;;;;1.60;0.90;;;22.00;95.30;;;;;;4129245;28;20089;-69
2022/07/03 00:04:14;;;;;;;1.42;0.93;;;21.90;95.40;;;;;;4128944;28;20524;-69
2022/07/03 00:06:14;;;;;;;1.90;0.98;;;21.90;95.70;;;;;;4127723;28;20050;-70
2022/07/03 00:08:15;;;;;;;1.73;1.02;;;21.90;95.60;;;;;;4129011;28;20031;-70
2022/07/03 00:10:15;;;;;;;0.82;0.82;;;21.90;96.40;;;;;;4126554;28;20035;-70
2022/07/03 00:12:16;;;;;;;2.03;1.15;;;21.90;96.50;;;;;;4129063;28;20073;-69
2022/07/03 00:14:17;;;;;;;2.92;1.40;;;21.80;96.60;;;;;;4129012;28;20080;-70
2022/07/03 00:16:17;;;;;;;2.17;1.08;;;21.80;96.90;;;;;;4128513;28;20378;-70
2022/07/03 00:18:18;;;;;;;1.45;1.02;;;21.80;96.90;;;;;;4128973;28;20023;-70
2022/07/03 00:20:19;;;;;;;2.08;1.30;;;21.80;96.70;;;;;;4127370;28;20038;-68
2022/07/03 00:22:23;;;;;;;1.65;1.27;;;21.80;97.60;;;;;;4128607;28;20034;-67
2022/07/03 00:24:28;;;;;;;1.70;1.10;;;21.80;98.30;;;;;;4129018;28;20165;-70
2022/07/03 00:26:33;;;;;;;1.38;1.23;;;21.70;98.00;;;;;;4128234;28;20026;-70
2022/07/03 00:28:34;;;;;;;3.13;1.33;;;21.70;98.20;;;;;;4128110;28;20073;-70
2022/07/03 00:30:35;;;;;;;1.90;0.90;;;21.70;97.80;;;;;;4127995;28;20030;-70
2022/07/03 00:32:38;;;;;;;3.25;0.98;;;21.70;98.30;;;;;;4129112;28;20026;-70
2022/07/03 00:34:41;;;;;;;2.67;1.23;;;21.70;98.30;;;;;;4129186;28;20027;-70
2022/07/03 00:36:44;;;;;;;3.47;1.30;;;21.70;97.90;;;;;;4128252;28;20022;-70
2022/07/03 00:38:45;;;;;;;3.80;1.25;;;21.70;98.20;;;;;;4128312;28;20440;-70
2022/07/03 00:40:46;;;;;;;2.55;1.17;;;21.60;97.60;;;;;;4128414;28;20026;-70
2022/07/03 00:42:51;;;;;;;2.28;1.15;;;21.60;97.50;;;;;;4128973;28;20030;-70
2022/07/03 00:44:59;;;;;;;2.33;1.00;;;21.60;98.10;;;;;;4130303;28;20050;-69
2022/07/03 00:47:03;;;;;;;2.15;1.23;;;21.50;98.50;;;;;;4131537;28;20039;-69
2022/07/03 00:49:05;;;;;;;1.15;0.95;;;21.50;99.10;;;;;;4129763;28;20042;-70
2022/07/03 00:51:08;;;;;;;1.45;1.30;;;21.50;99.80;;;;;;4130327;28;20026;-70
2022/07/03 00:53:11;;;;;;;1.08;0.98;;;21.50;99.90;;;;;;4131937;28;20505;-70
2022/07/03 00:55:16;;;;;;;1.80;1.05;;;21.50;99.80;;;;;;4130822;28;20493;-70
2022/07/03 00:57:18;;;;;;;2.58;1.10;;;21.50;99.90;;;;;;4131883;28;20034;-70
2022/07/03 00:59:19;;;;;;;1.75;1.00;;;21.50;99.60;;;;;;4130618;28;20045;-70
2022/07/03 01:01:21;;;;;;;3.08;1.20;;;21.50;98.40;;;;;;4131225;28;20038;-70
2022/07/03 01:03:26;;;;;;;1.17;1.08;;;21.50;98.70;;;;;;4130857;28;20049;-69
2022/07/03 01:05:39;;;;;;;2.28;1.00;;;21.40;99.50;;;;;;4130959;28;20836;-70
2022/07/03 01:08:13;;;;;;;1.83;1.10;;;21.40;99.90;;;;;;4125692;28;20023;-70
2022/07/03 01:10:13;;;;;;;1.65;1.00;;;21.30;99.90;;;;;;4122790;28;20027;-69
2022/07/03 01:12:33;;;;;;;1.90;1.33;;;21.30;99.90;;;;;;4125445;28;20487;-70
2022/07/03 01:14:59;;;;;;;2.67;1.00;;;21.30;99.90;;;;;;4123778;28;20050;-70
2022/07/03 01:17:26;;;;;;;2.08;1.20;;;21.20;99.80;;;;;;4117068;28;20050;-70
2022/07/03 01:19:35;;;;;;;1.45;1.00;;;21.20;99.90;;;;;;4122778;28;20042;-70
2022/07/03 01:22:17;;;;;;;0.90;0.73;;;21.20;99.90;;;;;;4124971;28;20034;-70
2022/07/03 01:24:36;;;;;;;2.65;1.17;;;21.20;99.90;;;;;;4123576;28;20034;-70
2022/07/03 01:26:40;;;;;;;2.83;1.35;;;21.20;99.90;;;;;;4123647;28;20045;-70
2022/07/03 01:28:45;;;;;;;1.40;1.15;;;21.20;99.90;;;;;;4126105;28;20038;-69
2022/07/03 01:30:53;;;;;;;1.42;1.13;;;21.20;99.80;;;;;;4124728;28;20034;-69
2022/07/03 01:33:24;;;;;;;2.00;1.20;;;21.10;99.90;;;;;;4126073;28;20030;-70
2022/07/03 01:35:54;;;;;;;2.42;1.10;;;21.10;99.90;;;;;;4119114;28;20044;-69
2022/07/03 01:37:56;;;;;;;1.73;1.17;;;21.10;99.90;;;;;;4125953;28;20038;-69
2022/07/03 01:39:58;;;;;;;2.22;1.27;;;21.10;99.80;;;;;;4133716;28;20037;-69
2022/07/03 01:42:00;;;;;;;2.92;1.38;;;21.00;99.80;;;;;;4143521;28;20081;-69
2022/07/03 01:44:04;;;;;;;1.55;1.25;;;21.00;99.90;;;;;;4144642;28;20061;-69
2022/07/03 01:46:04;;;;;;;1.33;0.98;;;21.00;99.90;;;;;;4140762;28;20037;-70
2022/07/03 01:48:07;;;;;;;1.48;1.02;;;21.00;99.90;;;;;;4142692;28;20454;-69
2022/07/03 01:50:11;;;;;;;2.78;1.27;;;21.00;99.90;;;;;;4136016;28;20069;-71
2022/07/03 01:52:13;;;;;;;1.63;1.10;;;21.00;99.90;;;;;;4128105;28;20034;-69
2022/07/03 01:54:14;;;;;;;3.15;1.15;;;21.00;99.90;;;;;;4129860;28;20437;-69
2022/07/03 01:56:16;;;;;;;3.20;1.67;;;20.90;99.90;;;;;;4128893;28;20034;-69
2022/07/03 01:58:17;;;;;;;1.15;0.77;;;20.90;99.90;;;;;;4129676;28;20031;-69
2022/07/03 02:00:20;;;;;;;1.92;1.00;;;20.90;99.90;;;;;;4128843;28;20081;-71
2022/07/03 02:02:33;;;;;;;2.08;1.50;;;20.90;99.90;;;;;;4129855;28;20051;-69
2022/07/03 02:04:48;;;;;;;2.83;1.17;;;20.90;99.90;;;;;;4129662;28;20031;-69
2022/07/03 02:07:08;;;;;;;2.83;1.33;;;20.90;99.90;;;;;;4128992;28;20050;-69
2022/07/03 02:09:11;;;;;;;3.17;1.15;;;20.80;99.90;;;;;;4127278;28;20022;-69
2022/07/03 02:11:17;;;;;;;2.60;1.20;;;20.70;99.90;;;;;;4128150;28;20038;-69
2022/07/03 02:13:27;;;;;;;2.63;1.20;;;20.70;99.90;;;;;;4127396;28;20030;-69
2022/07/03 02:15:33;;;;;;;2.05;1.00;;;20.70;99.90;;;;;;4125924;28;20078;-70
2022/07/03 02:17:42;;;;;;;3.45;1.10;;;20.70;99.90;;;;;;4118171;28;20387;-70
2022/07/03 02:19:53;;;;;;;2.30;1.05;;;20.70;99.90;;;;;;4120294;28;20031;-70
2022/07/03 02:21:56;;;;;;;3.35;1.20;;;20.60;99.90;;;;;;4124077;28;20034;-69
2022/07/03 02:24:18;;;;;;;2.33;1.27;;;20.60;99.90;;;;;;4125069;28;20129;-69
2022/07/03 02:26:26;;;;;;;1.42;1.00;;;20.60;99.90;;;;;;4123699;28;20061;-69
2022/07/03 02:28:36;;;;;;;1.60;0.88;;;20.60;99.90;;;;;;4117699;28;20116;-70
2022/07/03 02:30:42;;;;;;;1.70;1.17;;;20.50;99.90;;;;;;4129615;28;20113;-70
2022/07/03 02:32:51;;;;;;;2.95;1.00;;;20.50;99.90;;;;;;4130197;28;20038;-68
2022/07/03 02:35:06;;;;;;;1.92;1.38;;;20.50;99.90;;;;;;4130217;28;20504;-69
2022/07/03 02:37:15;;;;;;;2.25;1.10;;;20.50;99.90;;;;;;4130094;28;20034;-69
2022/07/03 02:39:35;;;;;;;1.88;1.00;;;20.40;99.90;;;;;;4128720;28;20086;-69
2022/07/03 02:41:49;;;;;;;4.90;1.20;;;20.40;99.90;;;;;;4129617;28;20037;-70
2022/07/03 02:44:23;;;;;;;3.13;1.27;;;20.40;99.90;;;;;;4130405;28;20046;-70
2022/07/03 02:48:47;;;;;;;4.75;1.33;;;20.30;99.90;;;;;;4129102;28;20034;-69
2022/07/03 02:50:52;;;;;;;3.80;1.20;;;20.40;99.90;;;;;;4129276;28;20105;-70
2022/07/03 02:53:11;;;;;;;2.65;1.27;;;20.30;99.90;;;;;;4123543;28;20109;-67
2022/07/03 02:55:43;;;;;;;2.13;1.27;;;20.30;99.90;;;;;;4121711;28;20034;-69
2022/07/03 02:57:45;;;;;;;2.10;1.17;;;20.30;99.90;;;;;;4124353;28;20105;-69
2022/07/03 02:59:57;;;;;;;2.10;1.20;;;20.30;99.90;;;;;;4126921;28;20030;-69
2022/07/03 03:02:07;;;;;;;4.95;1.10;;;20.30;99.90;;;;;;4129260;28;20028;-69
2022/07/03 03:04:32;;;;;;;2.97;1.17;;;20.30;99.90;;;;;;4130341;28;20031;-70
2022/07/03 03:06:35;;;;;;;4.93;1.20;;;20.30;99.90;;;;;;4128783;28;20497;-69
2022/07/03 03:09:12;;;;;;;2.63;1.40;;;20.20;99.90;;;;;;4127809;28;20034;-70
2022/07/03 03:11:44;;;;;;;2.95;1.10;;;20.10;99.90;;;;;;4128534;28;20401;-70
2022/07/03 03:13:49;;;;;;;2.20;1.20;;;20.00;99.90;;;;;;4129443;28;20038;-69
2022/07/03 03:16:11;;;;;;;1.48;1.00;;;19.90;99.90;;;;;;4129346;28;20030;-69
2022/07/03 03:18:12;;;;;;;5.50;1.25;;;19.90;99.90;;;;;;4129866;28;20035;-69
2022/07/03 03:20:16;;;;;;;1.52;1.10;;;19.90;99.90;;;;;;4128248;28;20061;-69
2022/07/03 03:22:34;;;;;;;6.50;1.50;;;19.90;99.90;;;;;;4130011;28;20037;-70
2022/07/03 03:24:34;;;;;;;3.10;1.42;;;19.90;99.90;;;;;;4128421;28;20466;-70
2022/07/03 03:26:35;;;;;;;2.55;1.20;;;19.90;99.90;;;;;;4126855;28;20022;-70
2022/07/03 03:28:36;;;;;;;3.42;1.40;;;19.90;99.90;;;;;;4126447;28;20100;-70
2022/07/03 03:30:37;;;;;;;1.55;0.98;;;19.90;99.90;;;;;;4127625;28;20042;-73
2022/07/03 03:32:39;;;;;;;1.95;1.20;;;19.90;99.90;;;;;;4130410;28;20034;-73
2022/07/03 03:34:41;;;;;;;2.47;1.55;;;19.80;99.90;;;;;;4129323;28;20458;-73
2022/07/03 03:36:42;;;;;;;1.15;1.00;;;19.80;99.90;;;;;;4122951;28;20026;-73
2022/07/03 03:38:43;;;;;;;1.40;0.93;;;19.80;99.90;;;;;;4120057;28;20387;-72
2022/07/03 03:40:45;;;;;;;2.20;1.00;;;19.80;99.90;;;;;;4129900;28;20081;-72
2022/07/03 03:42:46;;;;;;;4.78;1.40;;;19.80;99.90;;;;;;4120704;28;20027;-73
2022/07/03 03:44:46;;;;;;;2.85;1.35;;;19.80;99.90;;;;;;4122658;28;20051;-73
2022/07/03 03:46:50;;;;;;;3.20;1.55;;;19.70;99.90;;;;;;4130300;28;20047;-73
2022/07/03 03:48:50;;;;;;;3.17;1.75;;;19.60;99.90;;;;;;4129819;28;20070;-73
2022/07/03 03:50:51;;;;;;;3.42;1.88;;;19.50;99.90;;;;;;4130250;28;20378;-73
2022/07/03 03:52:52;;;;;;;2.40;1.45;;;19.50;99.90;;;;;;4131818;28;20029;-73
2022/07/03 03:54:52;;;;;;;2.92;1.50;;;19.50;99.90;;;;;;4132265;28;20109;-73
2022/07/03 03:56:53;;;;;;;3.42;1.60;;;19.50;99.90;;;;;;4118345;28;20066;-73
2022/07/03 03:58:53;;;;;;;2.10;1.30;;;19.40;99.90;;;;;;4118976;28;20061;-73
2022/07/03 04:00:58;;;;;;;2.90;1.45;;;19.40;99.90;;;;;;4133751;28;20061;-73
2022/07/03 04:02:59;;;;;;;2.88;1.70;;;19.50;99.90;;;;;;4135238;28;20107;-73
2022/07/03 04:05:00;;;;;;;2.63;1.75;;;19.50;99.90;;;;;;4132373;28;20397;-73
2022/07/03 04:07:00;;;;;;;3.97;2.00;;;19.50;99.90;;;;;;4130945;28;20058;-73
2022/07/03 04:09:01;;;;;;;2.33;1.75;;;19.60;99.90;;;;;;4129206;28;20367;-73
2022/07/03 04:11:02;;;;;;;2.65;1.80;;;19.60;99.90;;;;;;4129019;28;20046;-73
2022/07/03 04:13:02;;;;;;;3.22;1.65;;;19.60;99.90;;;;;;4129124;28;20038;-73
2022/07/03 04:15:03;;;;;;;4.03;2.00;;;19.70;99.90;;;;;;4130352;28;20054;-74
2022/07/03 04:17:04;;;;;;;4.30;1.88;;;19.60;99.90;;;;;;4127333;28;20030;-73
2022/07/03 04:19:05;;;;;;;3.13;1.92;;;19.60;99.90;;;;;;4127708;28;20077;-73
2022/07/03 04:21:05;;;;;;;7.53;2.15;;;19.70;99.90;;;;;;4131649;28;20086;-73
2022/07/03 04:23:06;;;;;;;3.38;1.77;;;19.60;99.90;;;;;;4133167;28;20421;-73
2022/07/03 04:25:07;;;;;;;2.30;1.77;;;19.60;99.90;;;;;;4131809;28;20378;-74
2022/07/03 04:27:08;;;;;;;4.03;1.70;;;19.70;99.90;;;;;;4128835;28;20034;-73
2022/07/03 04:29:08;;;;;;;2.53;1.80;;;19.70;99.90;;;;;;4127583;28;20657;-73
2022/07/03 04:31:09;;;;;;;2.33;1.63;;;19.70;99.90;;;;;;4132273;28;20141;-73
2022/07/03 04:33:09;;;;;;;3.08;1.55;;;19.70;99.90;;;;;;4131223;28;20060;-73
2022/07/03 04:35:10;;;;;;;3.33;1.63;;;19.80;99.90;;;;;;4129406;28;20042;-74
2022/07/03 04:37:10;;;;;;;7.28;2.60;;;19.80;99.90;;;;;;4131393;28;20042;-74
2022/07/03 04:39:11;;;;;;;1.95;1.63;;;19.90;99.90;;;;;;4131098;28;20045;-73
2022/07/03 04:41:11;;;;;;;8.48;2.22;;;19.90;99.90;;;;;;4132717;28;20035;-73
2022/07/03 04:43:12;;;;;;;3.65;1.95;;;19.90;99.90;;;;;;4133006;28;20116;-74
2022/07/03 04:45:13;;;;;;;2.42;1.70;;;20.00;99.90;;;;;;4123862;28;20060;-69
2022/07/03 04:47:14;;;;;;;3.30;1.90;;;20.00;99.90;;;;;;4128059;28;20056;-73
2022/07/03 04:49:16;;;;;;;8.60;3.00;;;20.00;99.90;;;;;;4127498;28;20118;-73
2022/07/03 04:51:16;;;;;;;2.08;1.85;;;20.00;99.90;;;;;;4107142;28;20039;-73
2022/07/03 04:53:17;;;;;;;4.70;1.83;;;20.00;99.90;;;;;;4127992;28;20490;-73
2022/07/03 04:55:18;;;;;;;2.47;1.88;;;20.10;99.90;;;;;;4128261;28;20039;-73
2022/07/03 04:57:18;;;;;;;3.38;1.70;;;20.10;99.90;;;;;;4126313;28;20104;-73
2022/07/03 04:59:19;;;;;;;2.78;1.92;;;20.10;99.90;;;;;;4130867;28;20088;-73
2022/07/03 05:01:19;;;;;;;2.88;1.92;;;20.10;99.90;;;;;;4131898;28;20040;-73
2022/07/03 05:03:20;;;;;;;2.70;1.75;;;20.10;99.90;;;;;;4134197;28;20031;-73
2022/07/03 05:05:21;;;;;;;4.50;1.98;;;20.10;99.90;;;;;;4132436;28;20040;-73
2022/07/03 05:07:21;;;;;;;4.72;2.13;;;20.10;99.90;;;;;;4128879;28;20038;-73
2022/07/03 05:09:22;;;;;;;3.88;2.65;;;20.10;99.90;;;;;;4131983;28;20026;-73
2022/07/03 05:11:23;;;;;;;2.65;2.28;;;20.10;99.90;;;;;;4131326;28;20042;-73
2022/07/03 05:13:23;;;;;;;3.80;2.70;;;20.10;99.90;;;;;;4126492;28;20058;-73
2022/07/03 05:15:24;;;;;;;3.97;3.00;;;20.00;99.90;;;;;;4131639;28;20465;-73
2022/07/03 05:17:24;;;;;;;4.55;2.70;;;19.90;99.90;;;;;;4132977;28;20050;-73
2022/07/03 05:19:25;;;;;;;5.18;3.22;;;19.80;99.90;;;;;;4132108;28;20065;-73
2022/07/03 05:21:26;;;;;;;9.18;3.13;;;19.80;99.90;;;;;;4133270;28;20513;-73
2022/07/03 05:23:26;;;;;;;4.88;3.35;;;19.80;99.90;;;;;;4129782;28;20486;-73
2022/07/03 05:25:29;;;;;;;4.65;2.72;;;19.70;99.90;;;;;;4131274;28;20402;-73
2022/07/03 05:27:30;;;;;;;5.10;3.38;;;19.70;99.90;;;;;;4126309;28;20031;-73
2022/07/03 05:29:30;;;;;;;4.35;2.75;;;19.70;99.90;;;;;;4130674;28;20185;-73
2022/07/03 05:31:31;;;;;;;3.67;2.70;;;19.70;99.90;;;;;;4129001;28;20113;-73
2022/07/03 05:33:32;;;;;;;5.70;2.80;;;19.80;99.90;;;;;;4128250;28;20363;-73
2022/07/03 05:35:32;;;;;;;4.13;2.83;;;19.80;99.90;;;;;;4122873;28;20039;-73
2022/07/03 05:37:33;;;;;;;4.45;2.72;;;19.80;99.90;;;;;;4128156;28;20484;-73
2022/07/03 05:39:34;;;;;;;11.20;3.58;;;19.80;99.90;;;;;;4133835;28;20053;-73
2022/07/03 05:41:34;;;;;;;5.13;3.17;;;19.90;99.90;;;;;;4133326;28;20118;-73
2022/07/03 05:43:35;;;;;;;6.25;3.13;;;19.80;99.90;;;;;;4134128;28;20093;-73
2022/07/03 05:45:37;;;;;;;3.00;2.33;;;19.90;99.90;;;;;;4135462;28;20062;-73
2022/07/03 05:47:37;;;;;;;5.70;3.28;;;19.90;99.90;;;;;;4136248;28;20027;-73
2022/07/03 05:49:38;;;;;;;3.90;2.90;;;19.90;99.90;;;;;;4133088;28;20120;-73
2022/07/03 05:51:39;;;;;;;6.10;3.50;;;20.00;99.90;;;;;;4135158;28;20121;-74
2022/07/03 05:53:39;;;;;;;7.50;3.17;;;20.10;99.90;;;;;;4132679;28;20042;-74
2022/07/03 05:55:40;;;;;;;7.30;3.38;;;20.30;99.90;;;;;;4123453;28;20061;-74
2022/07/03 05:57:40;;;;;;;4.65;2.13;;;20.50;99.90;;;;;;4121813;28;20026;-74
2022/07/03 05:59:41;;;;;;;3.72;2.20;;;20.70;99.90;;;;;;4132194;28;20066;-74
2022/07/03 06:01:42;;;;;;;5.00;2.22;;;20.90;99.90;;;;;;4136360;28;20088;-73
2022/07/03 06:03:42;;;;;;;4.07;2.28;;;21.30;99.90;;;;;;4136361;28;20485;-74
2022/07/03 06:05:43;;;;;;;4.95;2.60;;;21.70;99.90;;;;;;4136828;28;20603;-74
2022/07/03 06:07:44;;;;;;;3.25;1.90;;;22.00;99.90;;;;;;4135616;28;20036;-71
2022/07/03 06:09:44;;;;;;;3.60;2.22;;;22.40;99.90;;;;;;4132563;28;20596;-73
2022/07/03 06:11:45;;;;;;;4.72;1.95;;;22.60;99.90;;;;;;4123850;28;20105;-74
2022/07/03 06:13:45;;;;;;;5.53;1.90;;;22.90;99.90;;;;;;4119512;28;20026;-74
2022/07/03 06:15:46;;;;;;;4.10;2.20;;;23.30;99.90;;;;;;4130543;28;20077;-74
2022/07/03 06:17:47;;;;;;;4.97;2.60;;;23.60;99.90;;;;;;4128469;28;20041;-75
2022/07/03 06:19:47;;;;;;;3.70;2.00;;;23.80;99.90;;;;;;4129023;28;20034;-74
2022/07/03 06:21:48;;;;;;;2.30;1.85;;;24.10;99.90;;;;;;4125563;28;20080;-74
2022/07/03 06:23:49;;;;;;;6.25;2.00;;;24.40;99.90;;;;;;4129601;28;20042;-74
2022/07/03 06:25:49;;;;;;;4.82;1.60;;;24.50;98.90;;;;;;4129039;28;20039;-75
2022/07/03 06:27:50;;;;;;;2.63;1.67;;;24.70;98.40;;;;;;4128627;28;20130;-75
2022/07/03 06:29:50;;;;;;;3.40;1.80;;;25.00;99.20;;;;;;4125642;28;20515;-75
2022/07/03 06:31:51;;;;;;;2.92;1.73;;;25.30;97.60;;;;;;4127045;28;20053;-75
2022/07/03 06:33:52;;;;;;;3.70;1.98;;;25.50;96.70;;;;;;4129239;28;20034;-75
2022/07/03 06:35:53;;;;;;;2.85;2.05;;;25.70;95.50;;;;;;4134873;28;20030;-75
2022/07/03 06:37:53;;;;;;;3.10;2.05;;;25.80;93.40;;;;;;4125336;28;20085;-75
2022/07/03 06:39:54;;;;;;;3.60;1.83;;;25.90;95.40;;;;;;4126792;28;20050;-75
2022/07/03 06:41:54;;;;;;;3.10;1.60;;;25.80;94.00;;;;;;4111468;28;20030;-75
2022/07/03 06:43:55;;;;;;;1.60;1.50;;;25.80;93.30;;;;;;4126821;28;20054;-75
2022/07/03 06:45:55;;;;;;;1.95;1.55;;;25.70;92.70;;;;;;4123622;28;20540;-76
2022/07/03 06:47:56;;;;;;;3.22;1.60;;;25.60;92.20;;;;;;4122659;28;20486;-75
2022/07/03 06:49:56;;;;;;;3.20;1.60;;;25.70;92.50;;;;;;4126923;28;20514;-76
2022/07/03 06:51:57;;;;;;;2.30;1.40;;;25.70;93.00;;;;;;4122829;28;20038;-76
2022/07/03 06:53:57;;;;;;;5.05;2.13;;;25.60;92.20;;;;;;4123741;28;20039;-75
2022/07/03 06:55:58;;;;;;;3.22;1.75;;;25.50;93.80;;;;;;4126873;28;20037;-76
2022/07/03 06:57:59;;;;;;;5.53;1.90;;;25.50;93.10;;;;;;4127976;28;20117;-75
2022/07/03 06:59:59;;;;;;;2.05;1.38;;;25.50;92.10;;;;;;4126110;28;20533;-75
2022/07/03 07:02:00;;;;;;;3.22;1.40;;;25.40;91.70;;;;;;4124336;28;20042;-73
2022/07/03 07:04:01;;;;;;;2.20;1.70;;;25.40;92.10;;;;;;4124483;28;20486;-75
2022/07/03 07:06:02;;;;;;;3.70;1.83;;;25.30;92.00;;;;;;4124684;28;20030;-75
2022/07/03 07:08:03;;;;;;;3.38;1.55;;;25.20;92.60;;;;;;4120549;28;20040;-75
2022/07/03 07:10:04;;;;;;;3.97;2.00;;;25.10;92.30;;;;;;4126060;28;20034;-75
2022/07/03 07:12:05;;;;;;;3.70;1.58;;;25.10;93.10;;;;;;4122731;28;20116;-75
2022/07/03 07:14:05;;;;;;;3.10;1.50;;;25.20;92.90;;;;;;4118482;28;20034;-75
2022/07/03 07:16:06;;;;;;;3.13;1.48;;;25.20;91.70;;;;;;4121149;28;20441;-75
2022/07/03 07:18:07;;;;;;;2.35;1.65;;;25.10;92.40;;;;;;4115193;28;20043;-75
2022/07/03 07:20:08;;;;;;;3.30;1.67;;;25.00;92.00;;;;;;4122630;28;20397;-76
2022/07/03 07:22:08;;;;;;;1.75;1.40;;;25.10;92.60;;;;;;4123270;28;20038;-75
2022/07/03 07:24:09;;;;;;;2.22;1.20;;;25.10;92.70;;;;;;4126883;28;20130;-75
2022/07/03 07:26:10;;;;;;;3.58;2.00;;;25.10;91.70;;;;;;4106052;28;20039;-75
2022/07/03 07:28:11;;;;;;;2.10;1.45;;;25.10;92.70;;;;;;4124154;28;20031;-75
2022/07/03 07:30:11;;;;;;;3.83;1.42;;;25.00;92.60;;;;;;4123247;28;20034;-75
2022/07/03 07:32:12;;;;;;;2.80;1.13;;;25.10;92.90;;;;;;4127680;28;20043;-75
2022/07/03 07:34:13;;;;;;;2.63;1.20;;;25.10;93.00;;;;;;4124130;28;20096;-75
2022/07/03 07:36:14;;;;;;;4.75;1.38;;;25.10;92.30;;;;;;4126496;28;20031;-75
2022/07/03 07:38:14;;;;;;;8.32;1.20;;;25.20;91.90;;;;;;4125537;28;20042;-75
2022/07/03 07:40:15;;;;;;;3.13;1.45;;;25.20;92.10;;;;;;4125390;28;20037;-75
2022/07/03 07:42:16;;;;;;;3.22;1.60;;;25.10;90.70;;;;;;4121126;28;20066;-74
2022/07/03 07:44:17;;;;;;;2.25;1.80;;;25.10;91.50;;;;;;4121965;28;20096;-74
2022/07/03 07:46:18;;;;;;;2.42;1.65;;;25.10;92.00;;;;;;4127485;28;20038;-74
2022/07/03 07:48:19;;;;;;;6.35;1.70;;;25.20;91.20;;;;;;4125417;28;20037;-74
2022/07/03 07:50:19;;;;;;;3.92;1.63;;;25.10;91.20;;;;;;4125686;28;20297;-75
2022/07/03 07:52:22;;;;;;;2.63;1.45;;;25.10;90.60;;;;;;4114689;28;20034;-74
2022/07/03 07:54:23;;;;;;;2.10;1.23;;;25.20;91.00;;;;;;4127939;28;20042;-74
2022/07/03 07:56:25;;;;;;;2.13;1.50;;;25.30;91.20;;;;;;4126689;28;20389;-74
2022/07/03 07:58:25;;;;;;;1.98;1.40;;;25.30;90.60;;;;;;4128511;28;20106;-74
2022/07/03 08:00:26;;;;;;;3.20;1.75;;;25.40;92.20;;;;;;4124721;28;20097;-74
2022/07/03 08:07:05;;;;;;;2.60;1.58;;;25.50;91.20;;;;;;4127855;28;20057;-74
2022/07/03 08:09:06;;;;;;;4.75;1.67;;;25.60;89.70;;;;;;4126461;28;20026;-74
2022/07/03 08:11:07;;;;;;;2.92;1.30;;;25.60;91.90;;;;;;4125643;28;20537;-74
2022/07/03 08:13:09;;;;;;;2.00;1.38;;;25.60;90.90;;;;;;4127369;28;20027;-74
2022/07/03 08:15:09;;;;;;;2.55;1.40;;;25.70;90.20;;;;;;4127668;28;20031;-75
2022/07/03 08:17:10;;;;;;;2.38;1.35;;;25.70;90.90;;;;;;4127458;28;20066;-74
2022/07/03 08:19:10;;;;;;;2.47;1.30;;;25.80;90.00;;;;;;4126886;28;20046;-74
2022/07/03 08:21:11;;;;;;;5.07;1.83;;;25.80;90.40;;;;;;4131341;28;20100;-74
2022/07/03 08:23:12;;;;;;;2.22;1.38;;;25.80;87.90;;;;;;4145291;28;20041;-74
2022/07/03 08:25:12;;;;;;;2.55;1.40;;;25.70;88.60;;;;;;4144534;28;20496;-75
2022/07/03 08:27:13;;;;;;;4.13;1.65;;;25.70;90.30;;;;;;4134418;28;20034;-74
2022/07/03 08:29:13;;;;;;;1.95;0.93;;;25.70;90.70;;;;;;4127259;28;20486;-74
2022/07/03 08:31:14;;;;;;;1.70;0.90;;;25.70;90.00;;;;;;4128121;28;20038;-74
2022/07/03 08:33:15;;;;;;;1.80;1.15;;;25.70;90.60;;;;;;4129469;28;20089;-74
2022/07/03 08:35:16;;;;;;;2.63;1.38;;;25.80;90.10;;;;;;4128565;28;20034;-75
2022/07/03 08:37:17;;;;;;;2.75;1.40;;;25.80;89.60;;;;;;4127756;28;20390;-74
2022/07/03 08:39:17;;;;;;;3.08;1.38;;;25.80;89.40;;;;;;4127848;28;20039;-74
2022/07/03 08:41:20;;;;;;;1.45;1.08;;;25.70;87.20;;;;;;4128792;28;20474;-74
2022/07/03 08:43:21;;;;;;;3.80;1.20;;;25.60;87.20;;;;;;4129079;28;20126;-74
2022/07/03 08:45:23;;;;;;;3.53;1.83;;;25.70;91.20;;;;;;4127808;28;20053;-74
2022/07/03 08:47:26;;;;;;;3.83;1.33;;;25.70;90.10;;;;;;4125265;28;20039;-74
2022/07/03 08:49:28;;;;;;;1.48;1.30;;;25.70;91.00;;;;;;4124680;28;20111;-75
2022/07/03 08:51:29;;;;;;;3.25;1.30;;;25.70;90.30;;;;;;4127272;28;20118;-74
2022/07/03 08:53:30;;;;;;;1.85;1.15;;;25.70;88.30;;;;;;4145092;28;20034;-74
2022/07/03 08:55:31;;;;;;;2.60;1.40;;;25.80;88.70;;;;;;4135475;28;20399;-75
2022/07/03 08:57:35;;;;;;;2.55;1.50;;;25.80;87.40;;;;;;4122280;28;20034;-74
2022/07/03 08:59:37;;;;;;;2.30;0.95;;;25.80;89.10;;;;;;4121842;28;20041;-75
2022/07/03 09:01:41;;;;;;;2.45;1.02;;;25.60;90.30;;;;;;4124929;28;20394;-75
2022/07/03 09:03:43;;;;;;;1.60;1.30;;;25.70;89.10;;;;;;4122025;28;20089;-74
2022/07/03 09:05:44;;;;;;;1.10;0.73;;;25.80;85.90;;;;;;4124490;28;20518;-75
2022/07/03 09:07:46;;;;;;;1.30;1.10;;;25.80;86.90;;;;;;4128225;28;20497;-75
2022/07/03 09:09:46;;;;;;;4.05;1.20;;;25.90;86.50;;;;;;4125961;28;20482;-74
2022/07/03 09:11:47;;;;;;;1.77;1.25;;;26.00;85.90;;;;;;4126447;28;20046;-74
2022/07/03 09:13:48;;;;;;;3.30;1.25;;;26.00;86.90;;;;;;4127040;28;20041;-74
2022/07/03 09:15:48;;;;;;;2.13;1.02;;;26.10;90.70;;;;;;4126482;28;20064;-74
2022/07/03 09:18:00;;;;;;;2.40;1.42;;;26.20;90.20;;;;;;4124379;28;20057;-72
2022/07/03 09:20:05;;;;;;;1.83;1.27;;;26.20;90.20;;;;;;4126863;28;20046;-74
2022/07/03 09:22:18;;;;;;;3.05;1.42;;;26.30;88.70;;;;;;4129119;28;20494;-73
2022/07/03 09:24:19;;;;;;;2.63;1.23;;;26.30;85.00;;;;;;4128827;28;20117;-75
2022/07/03 09:26:21;;;;;;;2.78;1.45;;;26.20;85.30;;;;;;4126576;28;20603;-74
2022/07/03 09:28:48;;;;;;;3.60;1.10;;;26.20;84.00;;;;;;4127211;28;20061;-74
2022/07/03 09:31:00;;;;;;;2.95;1.35;;;26.30;87.30;;;;;;4128329;28;20096;-74
2022/07/03 09:33:01;;;;;;;1.27;1.10;;;26.30;85.10;;;;;;4127574;28;20031;-74
2022/07/03 09:35:14;;;;;;;3.10;1.42;;;26.30;84.50;;;;;;4127545;28;20039;-74
2022/07/03 09:37:24;;;;;;;2.20;1.38;;;26.40;83.70;;;;;;4123138;28;20076;-74
2022/07/03 09:39:37;;;;;;;3.00;0.88;;;26.30;85.50;;;;;;4125436;28;20045;-74
2022/07/03 09:42:01;;;;;;;2.58;1.27;;;26.30;83.40;;;;;;4116862;28;20502;-75
2022/07/03 09:44:02;;;;;;;2.53;1.00;;;26.20;83.40;;;;;;4122222;28;20047;-75
2022/07/03 09:46:03;;;;;;;1.30;0.75;;;26.30;85.30;;;;;;4122102;28;20418;-74
2022/07/03 09:48:04;;;;;;;2.70;0.88;;;26.30;84.20;;;;;;4129102;28;20447;-75
2022/07/03 09:50:07;;;;;;;1.45;0.90;;;26.40;86.20;;;;;;4124082;28;20125;-75
2022/07/03 09:52:08;;;;;;;2.92;1.00;;;26.40;85.00;;;;;;4113985;28;20043;-74
2022/07/03 09:54:15;;;;;;;1.10;0.77;;;26.40;85.90;;;;;;4126541;28;20038;-75
2022/07/03 09:56:16;;;;;;;3.55;1.40;;;26.40;86.20;;;;;;4130343;28;20034;-74
2022/07/03 09:58:16;;;;;;;3.83;1.35;;;26.40;83.70;;;;;;4134514;28;20045;-74
2022/07/03 10:00:22;;;;;;;2.45;1.17;;;26.40;83.50;;;;;;4130715;28;20497;-73
2022/07/03 10:02:23;;;;;;;2.47;1.30;;;26.50;87.50;;;;;;4130708;28;20509;-74
2022/07/03 10:04:24;;;;;;;3.72;1.10;;;26.50;86.60;;;;;;4130829;28;20100;-75
2022/07/03 10:06:26;;;;;;;2.03;0.90;;;26.50;87.30;;;;;;4129772;28;20057;-75
2022/07/03 10:08:26;;;;;;;2.95;1.58;;;26.60;86.50;;;;;;4126654;28;20045;-74
2022/07/03 10:10:30;;;;;;;3.08;1.17;;;26.60;89.50;;;;;;4125869;28;20412;-74
2022/07/03 10:12:30;;;;;;;3.10;1.30;;;26.70;88.00;;;;;;4126934;28;20038;-75
2022/07/03 10:14:32;;;;;;;1.40;1.00;;;26.60;85.80;;;;;;4129237;28;20061;-75
2022/07/03 10:16:33;;;;;;;2.17;1.10;;;26.70;88.80;;;;;;4129398;28;20045;-75
2022/07/03 10:18:39;;;;;;;4.80;1.00;;;26.70;87.20;;;;;;4127729;28;20496;-75
2022/07/03 10:20:41;;;;;;;2.38;1.15;;;26.60;85.20;;;;;;4129179;28;20378;-75
2022/07/03 10:22:47;;;;;;;2.22;1.17;;;26.60;87.00;;;;;;4129898;28;20566;-76
2022/07/03 10:24:49;;;;;;;1.48;0.93;;;26.60;84.10;;;;;;4124895;28;20037;-74
2022/07/03 10:26:54;;;;;;;3.00;1.10;;;26.40;84.60;;;;;;4114658;28;20034;-75
2022/07/03 10:28:57;;;;;;;2.85;1.00;;;26.50;84.10;;;;;;4118499;28;20043;-75
2022/07/03 10:30:59;;;;;;;2.17;1.13;;;26.60;85.60;;;;;;4116555;28;20549;-75
2022/07/03 10:32:59;;;;;;;2.10;1.00;;;26.60;88.80;;;;;;4130463;28;20458;-75
2022/07/03 10:35:03;;;;;;;3.60;1.50;;;26.60;84.20;;;;;;4130452;28;20436;-75
2022/07/03 10:37:04;;;;;;;6.18;1.80;;;26.60;82.30;;;;;;4129731;28;20057;-75
2022/07/03 10:39:06;;;;;;;2.25;1.33;;;26.70;81.00;;;;;;4127558;28;20520;-75
2022/07/03 10:46:10;;;;;;;1.80;0.88;;;26.70;86.70;;;;;;4129229;28;20104;-75
2022/07/03 10:48:11;;;;;;;2.22;0.93;;;26.70;84.00;;;;;;4124147;28;20038;-75
2022/07/03 10:50:17;;;;;;;4.05;1.10;;;26.80;85.00;;;;;;4124411;28;20394;-75
2022/07/03 10:52:18;;;;;;;2.03;0.80;;;26.70;83.30;;;;;;4118454;28;20037;-71
2022/07/03 10:54:39;;;;;;;1.52;0.90;;;26.70;81.60;;;;;;4129132;28;20058;-74
2022/07/03 10:56:57;;;;;;;1.90;0.75;;;26.80;85.00;;;;;;4127343;28;20041;-75